Tananarive, Madagascar

04:55 EAT le 02 septembre 2014 (GMT +0300)
Ivato | Change Station
CLOSE
Current Station
Aéroport
Location: Antananarivo,
Altitude: 4186 ft
Stations météo à proximité

Alt. 4186 ft 18.80 °S, 47.48 °E | Updated 25 minutes ago

Partly Cloudy
Partiellement nuageux
54 ° F
Paraît 54 ° F
N
5
Vent Variable Vent de NE

Aujourd'hui
Haut(e) -- | Bas -- ° F
--% Risque de précip.
Hier
Haut(e) -- | Bas -- ° F
Precip. -- pouce
5:57 AM 5:42 PM
Lune montante, 46% visible
Pression 30.09 pouce
Visibilité 6.2 Miles terrestres
Nuages Peu 1700 ft
Point de rosée 54 ° F
Humidité 100%
Précipitations 0.00 pouce
Profondeur de la couche neigeuse Non disponible.
UV 0 sur 12
Pollen Non disponible.
Qualité de l'air Non disponible.
Flu Activity Non disponible.
METAR FMMI 020130Z 05004KT 9999 FEW017 12/12 Q1019 NOSIG

More Conditions Fewer Conditions

Pression 30.09 pouce
Visibilité 6.2 Miles terrestres
Nuages Peu 1700 ft
Point de rosée 54 ° F
Humidité 100%
Précipitations 0.00 pouce
Profondeur de la couche neigeuse Non disponible.
UV 0 sur 12
Pollen Non disponible.
Qualité de l'air Non disponible.
Flu Activity Non disponible.
METAR FMMI 020130Z 05004KT 9999 FEW017 12/12 Q1019 NOSIG

More Conditions Fewer Conditions

10-Day Weather Forecast

Almanac

Astronomie

Sep. 02, 2014 Lever Coucher
Temps réel 05:57 EAT 17:42 EAT
Crépuscule civil 05:35 EAT 18:04 EAT
Crépuscule nautique 05:09 EAT 18:30 EAT
Crépuscule astronomique 04:44 EAT 18:55 EAT
Lune 11:08 EAT Pas de coucher de lune
Durée de lumière visible 12h 29m
Longueur du jour
11h 45m
Tomorrow will be 1m 1s longer.
Lune montante, 46% of the Moon is Illuminated
Sep 1
Lune montante
Sep 2
Premier quartier
Sep 8
Pleine lune
Sep 15
Dernier quartier
Sep 24
Nouveau

Les extrêmes de température d’hier

Country Highs Country Lows

Community

WunderPhotos

Upload Photos

1,749,476 Photos téléchargées !

Nearby

Qualité de l'air

Not available.

Épaisseur de neige

Not available.

Activité sismique

Ville Distance Mag. Time & Date
No recent earthquake activity has been reported nearby.
Minimum magnitude displayed is 2.5.

Températures des eaux côtières

Lieu Température
Aucun rapport de station

Stations météo à proximité